Time;durP1;ratioP1;P1;durP2;ratioP2;P2;SDS_P1;SDS_P2;PMS_P1;PMS_P2;Temp;Humidity;BMP_temperature;BMP_pressure;BME280_temperature;BME280_humidity;BME280_pressure;Samples;Min_cycle;Max_cycle;Signal;HPM_P1;HPM_P2
2023/10/01 00:01:31;;;;;;;3.22;1.55;;;13.70;1.00;;;;;;5149425;28;20026;-73
2023/10/01 00:04:07;;;;;;;5.20;2.15;;;13.70;1.00;;;;;;5137076;28;20090;-73
2023/10/01 00:06:40;;;;;;;6.97;1.83;;;13.70;1.00;;;;;;5121284;28;20328;-73
2023/10/01 00:09:19;;;;;;;5.53;2.00;;;13.60;1.00;;;;;;5156512;28;20064;-73
2023/10/01 00:11:51;;;;;;;6.25;2.53;;;13.50;1.00;;;;;;5158754;28;20049;-74
2023/10/01 00:14:22;;;;;;;8.40;2.50;;;13.40;1.00;;;;;;5142191;28;20049;-73
2023/10/01 00:16:57;;;;;;;2.03;1.83;;;13.30;1.00;;;;;;5136314;28;20045;-74
2023/10/01 00:19:29;;;;;;;3.17;2.63;;;13.20;1.00;;;;;;5155163;28;20094;-74
2023/10/01 00:22:00;;;;;;;3.15;1.85;;;13.10;1.00;;;;;;5142831;28;20116;-73
2023/10/01 00:24:33;;;;;;;2.80;2.60;;;13.00;1.00;;;;;;5158424;28;20038;-73
2023/10/01 00:27:14;;;;;;;7.28;2.45;;;13.00;1.00;;;;;;5142517;28;20042;-74
2023/10/01 00:29:51;;;;;;;2.08;1.65;;;12.90;1.00;;;;;;5190800;28;20095;-73
2023/10/01 00:32:28;;;;;;;7.00;2.20;;;12.90;1.00;;;;;;5171679;28;20252;-73
2023/10/01 00:34:59;;;;;;;3.90;2.13;;;12.80;1.00;;;;;;5178139;28;20031;-72
2023/10/01 00:37:36;;;;;;;3.33;2.40;;;12.80;1.00;;;;;;5158310;28;20366;-73
2023/10/01 00:40:10;;;;;;;5.25;2.05;;;12.80;1.00;;;;;;5158749;28;20048;-74
2023/10/01 00:42:47;;;;;;;3.85;2.00;;;12.80;1.00;;;;;;5175034;28;20054;-73
2023/10/01 00:45:20;;;;;;;3.42;1.80;;;12.90;1.00;;;;;;5138374;28;20050;-73
2023/10/01 00:47:53;;;;;;;4.50;2.20;;;13.00;1.00;;;;;;5137760;28;20041;-73
2023/10/01 00:50:28;;;;;;;2.33;1.75;;;13.30;1.00;;;;;;5162109;28;20128;-73
2023/10/01 00:53:00;;;;;;;4.78;2.10;;;13.30;1.00;;;;;;5156184;28;20034;-73
2023/10/01 00:55:33;;;;;;;2.75;1.60;;;13.40;1.00;;;;;;5173910;28;20060;-74
2023/10/01 00:58:11;;;;;;;3.08;2.05;;;13.50;1.00;;;;;;5141770;28;20240;-74
2023/10/01 01:00:43;;;;;;;3.78;1.85;;;13.50;1.00;;;;;;5135647;28;20037;-74
2023/10/01 01:03:21;;;;;;;3.22;1.95;;;13.50;1.00;;;;;;5234284;23;20349;-63
2023/10/01 01:08:49;;;;;;;5.85;2.13;;;13.60;99.90;;;;;;5174386;28;20049;-60
2023/10/01 01:11:26;;;;;;;4.78;2.00;;;13.60;99.90;;;;;;5185699;28;20041;-58
2023/10/01 01:14:03;;;;;;;4.75;2.15;;;13.60;99.90;;;;;;5155283;28;20130;-60
2023/10/01 01:16:38;;;;;;;7.22;2.60;;;13.60;99.90;;;;;;5180018;28;20240;-61
2023/10/01 01:19:15;;;;;;;3.88;1.80;;;13.60;99.90;;;;;;5166133;28;20314;-59
2023/10/01 01:21:50;;;;;;;8.45;2.75;;;13.60;99.90;;;;;;5182274;28;20176;-60
2023/10/01 01:24:23;;;;;;;4.85;1.90;;;13.70;99.90;;;;;;5166025;28;20030;-59
2023/10/01 01:27:00;;;;;;;3.67;2.00;;;13.70;99.90;;;;;;5180808;28;20044;-60
2023/10/01 01:29:44;;;;;;;2.60;1.85;;;13.60;99.90;;;;;;5163758;28;20042;-61
2023/10/01 01:32:21;;;;;;;7.03;2.00;;;13.60;99.90;;;;;;5161464;28;20049;-61
2023/10/01 01:34:58;;;;;;;3.13;2.00;;;13.60;99.90;;;;;;5179626;28;20034;-59
2023/10/01 01:37:47;;;;;;;3.05;1.85;;;13.60;99.90;;;;;;5145540;28;20052;-60
2023/10/01 01:40:31;;;;;;;6.22;2.00;;;13.70;99.90;;;;;;5164028;28;20561;-59
2023/10/01 01:43:15;;;;;;;3.53;1.92;;;13.80;99.90;;;;;;5146982;28;20056;-63
2023/10/01 01:45:54;;;;;;;3.67;1.95;;;13.80;99.90;;;;;;5179163;28;20041;-61
2023/10/01 01:51:02;;;;;;;1.85;1.60;;;13.80;99.90;;;;;;5179542;28;20049;-61
2023/10/01 01:53:36;;;;;;;5.45;2.35;;;13.80;99.90;;;;;;5178358;28;20075;-61
2023/10/01 01:56:16;;;;;;;2.95;2.25;;;13.80;99.90;;;;;;5184683;28;20049;-62
2023/10/01 01:58:49;;;;;;;3.58;2.13;;;13.80;99.90;;;;;;5188135;28;20060;-60
2023/10/01 02:01:23;;;;;;;2.92;1.77;;;13.80;99.90;;;;;;5145872;28;20057;-62
2023/10/01 02:04:00;;;;;;;2.38;1.75;;;13.70;99.90;;;;;;5197596;28;20033;-61
2023/10/01 02:06:35;;;;;;;2.75;2.00;;;13.70;1.00;;;;;;5196947;28;20082;-62
2023/10/01 02:09:12;;;;;;;;;;;13.70;1.00;;;;;;5198451;28;20030;-60
2023/10/01 02:11:52;;;;;;;2.13;1.60;;;13.70;1.00;;;;;;5164687;28;19927;-62
2023/10/01 02:14:35;;;;;;;7.88;3.17;;;13.80;1.00;;;;;;5163059;28;20045;-62
2023/10/01 02:17:17;;;;;;;4.10;1.80;;;13.80;1.00;;;;;;5182667;28;20383;-63
2023/10/01 02:19:49;;;;;;;3.15;2.03;;;13.80;1.00;;;;;;5182220;28;20399;-62
2023/10/01 02:22:24;;;;;;;5.82;2.03;;;13.90;1.00;;;;;;5197509;28;20041;-62
2023/10/01 02:25:00;;;;;;;2.75;1.70;;;13.90;1.00;;;;;;5181535;28;20355;-62
2023/10/01 02:27:47;;;;;;;2.83;1.80;;;13.90;1.00;;;;;;5180518;28;20033;-62
2023/10/01 02:30:23;;;;;;;4.28;1.83;;;13.90;1.00;;;;;;5166339;28;20037;-62
2023/10/01 02:33:16;;;;;;;2.72;1.70;;;14.00;1.00;;;;;;5191125;28;20258;-61
2023/10/01 02:36:02;;;;;;;3.00;2.00;;;14.00;1.00;;;;;;5183679;28;20039;-62
2023/10/01 02:38:45;;;;;;;4.82;1.70;;;14.10;1.00;;;;;;5183067;28;20131;-62
2023/10/01 02:41:25;;;;;;;5.82;2.30;;;14.10;1.00;;;;;;5182163;28;20041;-63
2023/10/01 02:44:02;;;;;;;4.00;2.13;;;14.10;1.00;;;;;;5181396;28;20178;-61
2023/10/01 02:46:37;;;;;;;2.33;1.77;;;14.10;1.00;;;;;;5172318;28;20045;-62
2023/10/01 02:49:12;;;;;;;2.92;1.73;;;14.10;1.00;;;;;;5176549;28;20050;-62
2023/10/01 02:51:49;;;;;;;4.50;2.58;;;14.00;1.00;;;;;;5186189;28;20028;-62
2023/10/01 02:54:28;;;;;;;4.30;1.80;;;13.90;1.00;;;;;;5185643;28;20366;-61
2023/10/01 02:57:13;;;;;;;4.13;1.80;;;13.80;1.00;;;;;;5145168;28;20322;-61
2023/10/01 03:02:49;;;;;;;3.42;1.70;;;13.60;1.00;;;;;;5176878;28;20037;-61
2023/10/01 03:08:12;;;;;;;3.15;2.13;;;13.50;1.00;;;;;;5165509;28;20299;-60
2023/10/01 03:10:46;;;;;;;4.65;2.50;;;13.60;1.00;;;;;;5129872;28;20448;-61
2023/10/01 03:13:23;;;;;;;4.90;1.70;;;13.70;1.00;;;;;;5161541;28;20037;-61
2023/10/01 03:19:13;;;;;;;6.72;2.65;;;13.80;1.00;;;;;;5100599;28;20121;-62
2023/10/01 03:24:43;;;;;;;2.83;1.83;;;14.00;1.00;;;;;;5130869;28;20051;-62
2023/10/01 03:27:25;;;;;;;6.82;2.28;;;14.10;1.00;;;;;;5101326;28;20154;-62
2023/10/01 03:30:39;;;;;;;3.30;2.30;;;14.10;1.00;;;;;;5104779;28;20065;-61
2023/10/01 03:32:51;;;;;;;5.00;2.22;;;14.20;1.00;;;;;;5114002;28;20118;-62
2023/10/01 03:35:26;;;;;;;4.45;2.65;;;14.20;1.00;;;;;;5081068;29;20043;-60
2023/10/01 03:38:14;;;;;;;4.22;2.00;;;14.20;1.00;;;;;;5068330;29;20186;-61
2023/10/01 03:41:06;;;;;;;4.15;1.92;;;14.30;1.00;;;;;;5100797;28;20083;-62
2023/10/01 03:43:37;;;;;;;2.85;1.95;;;14.20;1.00;;;;;;5103315;28;20236;-62
2023/10/01 03:46:14;;;;;;;4.93;1.65;;;14.20;1.00;;;;;;5098747;29;20045;-61
2023/10/01 03:52:00;;;;;;;4.75;2.55;;;14.30;1.00;;;;;;5191986;28;20639;-62
2023/10/01 03:57:30;;;;;;;3.50;2.03;;;14.30;1.00;;;;;;5186204;28;20041;-61
2023/10/01 04:00:28;;;;;;;5.70;1.65;;;14.40;1.00;;;;;;5200788;28;20035;-61
2023/10/01 04:02:56;;;;;;;5.30;1.95;;;14.40;1.00;;;;;;5184734;28;20044;-62
2023/10/01 04:05:34;;;;;;;3.30;2.08;;;14.50;1.00;;;;;;5163031;28;20254;-62
2023/10/01 04:08:10;;;;;;;6.97;2.13;;;14.50;1.00;;;;;;5171667;28;20044;-62
2023/10/01 04:10:43;;;;;;;2.42;1.85;;;14.60;1.00;;;;;;5167769;28;20119;-61
2023/10/01 04:15:57;;;;;;;4.43;1.92;;;14.70;1.00;;;;;;5182658;28;20042;-60
2023/10/01 04:18:29;;;;;;;3.35;1.70;;;14.70;1.00;;;;;;5199591;28;20036;-61
2023/10/01 04:23:49;;;;;;;2.72;1.85;;;14.60;1.00;;;;;;5199730;28;20505;-63
2023/10/01 04:26:25;;;;;;;3.58;2.00;;;14.50;1.00;;;;;;5197796;28;20041;-63
2023/10/01 04:28:59;;;;;;;2.50;1.88;;;14.60;1.00;;;;;;5167017;28;20034;-62
2023/10/01 04:31:47;;;;;;;3.63;1.80;;;14.50;1.00;;;;;;5197142;28;20097;-62
2023/10/01 04:34:23;;;;;;;4.38;2.03;;;14.50;1.00;;;;;;5168809;28;20055;-63
2023/10/01 04:36:58;;;;;;;4.82;2.10;;;14.50;1.00;;;;;;5183237;28;20291;-60
2023/10/01 04:39:37;;;;;;;3.97;1.98;;;14.50;1.00;;;;;;5182297;28;20045;-59
2023/10/01 04:42:12;;;;;;;6.15;2.45;;;14.60;99.90;;;;;;5145453;28;20053;-60
2023/10/01 04:44:46;;;;;;;3.50;1.73;;;14.50;99.90;;;;;;5183050;28;20057;-60
2023/10/01 04:47:30;;;;;;;2.70;1.90;;;14.60;1.00;;;;;;5164378;28;20064;-62
2023/10/01 04:50:02;;;;;;;;;;;14.60;1.00;;;;;;5169248;28;20102;-61
2023/10/01 04:52:34;;;;;;;3.22;2.08;;;14.70;1.00;;;;;;5199986;28;19917;-61
2023/10/01 04:55:14;;;;;;;3.70;2.00;;;14.60;1.00;;;;;;5183288;28;20029;-59
2023/10/01 04:57:50;;;;;;;5.28;2.30;;;14.60;1.00;;;;;;5173918;28;20105;-59
2023/10/01 05:00:25;;;;;;;10.70;2.33;;;14.70;1.00;;;;;;5180756;28;20025;-61
2023/10/01 05:02:59;;;;;;;;;;;14.70;1.00;;;;;;5178354;28;20046;-60
2023/10/01 05:05:40;;;;;;;4.15;2.17;;;14.70;1.00;;;;;;5200656;28;20251;-61
2023/10/01 05:08:17;;;;;;;3.40;2.05;;;14.70;1.00;;;;;;5181699;28;20053;-60
2023/10/01 05:10:51;;;;;;;;;;;14.80;1.00;;;;;;5185137;28;20052;-62
2023/10/01 05:13:26;;;;;;;3.25;1.80;;;14.80;1.00;;;;;;5174486;28;20341;-62
2023/10/01 05:16:06;;;;;;;;;;;14.80;1.00;;;;;;5174495;28;20037;-61
2023/10/01 05:21:47;;;;;;;4.57;2.30;;;14.90;1.00;;;;;;5189303;28;20033;-60
2023/10/01 05:24:41;;;;;;;4.28;2.10;;;14.90;1.00;;;;;;5159989;28;20307;-60
2023/10/01 05:27:24;;;;;;;4.45;2.55;;;14.90;1.00;;;;;;5192474;28;20037;-60
2023/10/01 05:29:56;;;;;;;4.75;2.13;;;15.00;1.00;;;;;;5168482;28;20041;-60
2023/10/01 05:32:48;;;;;;;3.47;2.10;;;15.00;1.00;;;;;;5182451;28;20037;-59
2023/10/01 05:35:23;;;;;;;3.05;2.00;;;15.20;1.00;;;;;;5194070;28;20048;-63
2023/10/01 05:37:58;;;;;;;5.45;1.83;;;15.30;99.90;;;;;;5186470;28;20037;-64
2023/10/01 05:40:40;;;;;;;4.20;2.13;;;15.10;99.90;;;;;;5188443;28;20029;-63
2023/10/01 05:43:14;;;;;;;3.88;2.22;;;15.00;1.00;;;;;;5195168;28;20037;-62
2023/10/01 05:45:52;;;;;;;3.90;2.47;;;14.90;1.00;;;;;;5165230;28;20253;-63
2023/10/01 05:48:26;;;;;;;4.10;2.60;;;14.80;1.00;;;;;;5183077;28;20045;-62
2023/10/01 05:51:02;;;;;;;4.82;1.98;;;14.70;1.00;;;;;;5168323;28;20041;-62
2023/10/01 05:53:38;;;;;;;4.88;2.40;;;14.70;1.00;;;;;;5173447;28;20041;-60
2023/10/01 05:56:11;;;;;;;5.53;2.30;;;14.70;1.00;;;;;;5167790;28;20037;-62
2023/10/01 05:58:43;;;;;;;3.38;2.13;;;14.70;1.00;;;;;;5154008;28;20041;-63
2023/10/01 06:01:15;;;;;;;3.45;1.90;;;14.80;1.00;;;;;;5167449;28;20063;-62
2023/10/01 06:03:49;;;;;;;5.05;2.30;;;14.90;1.00;;;;;;5182802;28;20068;-61
2023/10/01 06:06:26;;;;;;;3.33;2.15;;;15.00;1.00;;;;;;5183383;28;20654;-62
2023/10/01 06:09:09;;;;;;;3.88;1.98;;;15.20;1.00;;;;;;5199786;28;20041;-60
2023/10/01 06:11:48;;;;;;;4.30;2.03;;;15.40;99.90;;;;;;5150245;28;20046;-60
2023/10/01 06:14:41;;;;;;;3.33;2.05;;;15.50;99.90;;;;;;5189867;28;20041;-63
2023/10/01 06:17:15;;;;;;;5.35;2.30;;;15.60;99.90;;;;;;5191310;28;20045;-64
2023/10/01 06:19:48;;;;;;;;;;;15.70;99.90;;;;;;5182867;28;20055;-59
2023/10/01 06:22:22;;;;;;;4.85;2.00;;;15.80;99.90;;;;;;5169612;28;19921;-59
2023/10/01 06:24:56;;;;;;;7.35;2.95;;;15.90;99.90;;;;;;5200088;28;20045;-63
2023/10/01 06:27:28;;;;;;;5.20;2.88;;;15.80;99.90;;;;;;5199068;28;20044;-60
2023/10/01 06:30:00;;;;;;;4.25;2.63;;;15.90;1.00;;;;;;5200565;28;20036;-61
2023/10/01 06:32:33;;;;;;;4.30;2.97;;;16.00;1.00;;;;;;5179290;28;20045;-64
2023/10/01 06:35:05;;;;;;;3.50;2.85;;;15.90;1.00;;;;;;5179995;28;20041;-60
2023/10/01 06:37:47;;;;;;;5.32;2.97;;;15.90;1.00;;;;;;5183011;28;20056;-61
2023/10/01 06:40:30;;;;;;;5.93;3.33;;;15.90;1.00;;;;;;5167040;28;20372;-61
2023/10/01 06:43:02;;;;;;;9.02;3.63;;;15.80;1.00;;;;;;5197506;28;20431;-62
2023/10/01 06:45:38;;;;;;;5.25;3.17;;;15.90;1.00;;;;;;5198587;28;20501;-60
2023/10/01 06:48:14;;;;;;;6.43;3.70;;;16.00;1.00;;;;;;5182070;28;20363;-62
2023/10/01 06:50:49;;;;;;;8.27;3.53;;;16.20;1.00;;;;;;5172322;28;20248;-59
2023/10/01 06:53:43;;;;;;;10.10;3.50;;;16.50;1.00;;;;;;5181649;28;20034;-59
2023/10/01 06:56:18;;;;;;;6.05;3.50;;;16.70;1.00;;;;;;5185354;28;20033;-58
2023/10/01 06:59:33;;;;;;;6.53;3.60;;;16.90;1.00;;;;;;5177906;28;20048;-60
2023/10/01 07:01:50;;;;;;;6.40;2.95;;;16.90;1.00;;;;;;5194900;28;20561;-62
2023/10/01 07:04:31;;;;;;;6.95;3.00;;;16.90;1.00;;;;;;5200342;28;20047;-58
2023/10/01 07:07:20;;;;;;;7.93;3.92;;;17.10;1.00;;;;;;5148604;28;20053;-61
2023/10/01 07:09:57;;;;;;;6.13;3.00;;;17.10;1.00;;;;;;5155307;28;20330;-59
2023/10/01 07:12:29;;;;;;;5.95;2.95;;;17.30;1.00;;;;;;5180425;28;20046;-59
2023/10/01 07:15:03;;;;;;;5.63;2.55;;;17.30;1.00;;;;;;5197768;28;20030;-59
2023/10/01 07:17:39;;;;;;;6.68;3.22;;;17.20;1.00;;;;;;5180313;28;20045;-60
2023/10/01 07:20:24;;;;;;;5.05;2.75;;;17.30;1.00;;;;;;5187754;28;20029;-62
2023/10/01 07:22:56;;;;;;;4.75;2.83;;;17.40;1.00;;;;;;5197629;28;20040;-60
2023/10/01 07:25:28;;;;;;;6.53;2.88;;;17.50;1.00;;;;;;5185776;28;20037;-59
2023/10/01 07:28:05;;;;;;;4.50;2.80;;;17.70;1.00;;;;;;5169485;28;20045;-62
2023/10/01 07:30:51;;;;;;;4.95;3.10;;;17.80;1.00;;;;;;5184150;28;20033;-60
2023/10/01 07:33:28;;;;;;;5.55;2.60;;;17.90;1.00;;;;;;5154690;28;20047;-61
2023/10/01 07:36:00;;;;;;;4.45;2.83;;;17.90;1.00;;;;;;5186947;28;20051;-61
2023/10/01 07:38:52;;;;;;;5.55;2.80;;;17.90;1.00;;;;;;5165645;28;20531;-61
2023/10/01 07:41:26;;;;;;;4.63;2.35;;;17.90;1.00;;;;;;5177873;28;20525;-62
2023/10/01 07:44:07;;;;;;;7.20;2.85;;;17.90;99.90;;;;;;5184155;28;20057;-61
2023/10/01 07:46:40;;;;;;;7.50;3.25;;;18.10;99.90;;;;;;5182065;28;20029;-62
2023/10/01 07:49:12;;;;;;;6.78;2.75;;;18.20;99.90;;;;;;5204021;28;20322;-61
2023/10/01 07:51:48;;;;;;;5.07;2.38;;;18.30;99.90;;;;;;5203078;28;20035;-60
2023/10/01 07:54:22;;;;;;;6.55;2.50;;;18.20;99.90;;;;;;5186272;28;20049;-61
2023/10/01 07:57:08;;;;;;;4.55;2.60;;;18.30;99.90;;;;;;5186188;28;20043;-63
2023/10/01 07:59:43;;;;;;;5.57;2.60;;;18.50;99.90;;;;;;5185847;28;20140;-62
2023/10/01 08:02:27;;;;;;;5.20;3.00;;;18.70;99.90;;;;;;5183154;28;20048;-63
2023/10/01 08:05:08;;;;;;;3.83;2.20;;;18.70;99.90;;;;;;5177074;28;20064;-59
2023/10/01 08:07:43;;;;;;;5.85;2.95;;;18.90;49.90;;;;;;5182095;28;20038;-61
2023/10/01 08:10:18;;;;;;;5.47;2.72;;;18.70;86.50;;;;;;5174009;28;20068;-61
2023/10/01 08:15:29;;;;;;;5.13;2.78;;;18.70;7.80;;;;;;5160278;28;19913;-61
2023/10/01 08:21:00;;;;;;;4.70;2.72;;;18.70;1.00;;;;;;5175695;28;20033;-61
2023/10/01 08:23:45;;;;;;;6.20;2.97;;;18.80;1.00;;;;;;5181517;28;20026;-58
2023/10/01 08:29:15;;;;;;;5.03;2.63;;;19.40;1.00;;;;;;5179093;28;20234;-61
2023/10/01 08:34:28;;;;;;;7.00;3.00;;;19.50;1.00;;;;;;5181304;28;20338;-62
2023/10/01 08:37:06;;;;;;;6.32;1.95;;;19.50;1.00;;;;;;5185276;28;20046;-61
2023/10/01 08:39:53;;;;;;;5.05;2.55;;;19.50;18.30;;;;;;5170247;28;20766;-61
2023/10/01 08:42:28;;;;;;;5.82;3.05;;;19.50;1.00;;;;;;5171239;28;20507;-63
2023/10/01 08:45:11;;;;;;;4.80;2.00;;;19.50;94.60;;;;;;5180934;28;20030;-61
2023/10/01 08:47:47;;;;;;;5.22;2.60;;;19.20;72.80;;;;;;5179470;28;20501;-63
2023/10/01 08:50:26;;;;;;;5.35;2.72;;;19.20;65.90;;;;;;5163970;28;20046;-64
2023/10/01 08:53:10;;;;;;;5.82;2.67;;;19.40;25.70;;;;;;5180986;28;20069;-61
2023/10/01 09:01:15;;;;;;;6.15;2.17;;;19.90;31.60;;;;;;5184894;28;20021;-62
2023/10/01 09:03:52;;;;;;;4.68;2.17;;;20.20;94.80;;;;;;5169606;28;20269;-63
2023/10/01 09:06:59;;;;;;;7.97;2.50;;;20.50;16.70;;;;;;5174508;28;20051;-60
2023/10/01 09:09:51;;;;;;;3.85;2.17;;;20.80;98.80;;;;;;5183599;28;20037;-60
2023/10/01 09:12:22;;;;;;;3.95;2.10;;;20.90;99.90;;;;;;5184178;28;20052;-64
2023/10/01 09:14:54;;;;;;;4.63;2.45;;;20.70;99.90;;;;;;5180716;28;20043;-63
2023/10/01 09:17:56;;;;;;;5.00;2.63;;;21.00;99.90;;;;;;5171916;28;20045;-63
2023/10/01 09:23:58;;;;;;;5.18;2.50;;;21.20;99.90;;;;;;5199324;28;20029;-63
2023/10/01 09:26:53;;;;;;;5.05;2.72;;;20.90;99.90;;;;;;5184484;28;20036;-62
2023/10/01 09:29:32;;;;;;;5.57;3.00;;;20.80;99.90;;;;;;5182614;28;20049;-61
2023/10/01 09:32:13;;;;;;;5.05;2.53;;;20.90;99.90;;;;;;5179655;28;20348;-61
2023/10/01 09:34:58;;;;;;;5.63;2.72;;;20.90;99.90;;;;;;5157153;28;20041;-61
2023/10/01 09:37:35;;;;;;;3.90;2.30;;;20.80;99.90;;;;;;5180411;28;20289;-62
2023/10/01 09:40:32;;;;;;;4.53;2.40;;;20.80;99.90;;;;;;5199512;28;20033;-63
2023/10/01 09:43:18;;;;;;;6.78;2.60;;;20.80;99.90;;;;;;5200006;28;20032;-62
2023/10/01 09:45:51;;;;;;;5.10;2.45;;;21.00;99.90;;;;;;5181462;28;20048;-65
2023/10/01 09:48:30;;;;;;;5.70;3.17;;;21.60;99.90;;;;;;5183792;28;20025;-66
2023/10/01 09:51:17;;;;;;;5.43;2.20;;;21.90;99.90;;;;;;5164227;28;20044;-65
2023/10/01 09:54:00;;;;;;;5.65;3.05;;;22.20;99.90;;;;;;5180407;28;20033;-64
2023/10/01 09:56:46;;;;;;;5.38;2.63;;;22.20;99.90;;;;;;5182359;28;20044;-63
2023/10/01 09:59:23;;;;;;;5.50;2.55;;;22.10;99.90;;;;;;5175569;28;20044;-66
2023/10/01 10:02:02;;;;;;;6.05;3.20;;;22.40;99.90;;;;;;5174393;28;20040;-65
2023/10/01 10:04:39;;;;;;;5.70;3.35;;;22.10;99.90;;;;;;5184491;28;20025;-63
2023/10/01 10:07:22;;;;;;;6.28;3.47;;;22.30;99.90;;;;;;5153916;28;20564;-62
2023/10/01 10:09:56;;;;;;;4.53;2.33;;;22.90;99.90;;;;;;5162788;28;20045;-64
2023/10/01 10:12:34;;;;;;;6.78;2.90;;;23.60;99.90;;;;;;5161885;28;20052;-62
2023/10/01 10:15:08;;;;;;;4.50;2.90;;;23.90;99.90;;;;;;5163298;28;20033;-63
2023/10/01 10:18:15;;;;;;;6.50;3.00;;;24.30;99.90;;;;;;5175671;28;20242;-60
2023/10/01 10:21:03;;;;;;;4.90;2.55;;;24.10;99.90;;;;;;5175232;28;20029;-62
2023/10/01 10:23:54;;;;;;;4.40;2.65;;;23.80;99.90;;;;;;5175194;28;20264;-62
2023/10/01 10:26:56;;;;;;;7.72;3.22;;;23.20;99.90;;;;;;5157792;28;20045;-63
2023/10/01 10:29:56;;;;;;;6.65;2.83;;;22.40;99.90;;;;;;5167170;28;20232;-62
2023/10/01 10:32:42;;;;;;;6.57;3.15;;;21.20;99.90;;;;;;5190409;28;20037;-59
2023/10/01 10:35:16;;;;;;;8.27;3.45;;;22.30;99.90;;;;;;5198977;28;20032;-59
2023/10/01 10:37:56;;;;;;;6.78;3.03;;;22.60;99.90;;;;;;5198320;28;20044;-60
2023/10/01 10:40:30;;;;;;;7.28;2.88;;;21.70;99.90;;;;;;5215257;28;20044;-61
2023/10/01 10:43:07;;;;;;;4.47;2.75;;;20.80;99.90;;;;;;5214199;28;20230;-61
2023/10/01 10:45:46;;;;;;;8.65;3.05;;;21.00;99.90;;;;;;5198119;28;20040;-61
2023/10/01 10:48:21;;;;;;;4.82;2.70;;;21.10;99.90;;;;;;5187892;28;20348;-63
2023/10/01 10:50:57;;;;;;;6.47;2.78;;;21.20;99.90;;;;;;5216252;28;20339;-62
2023/10/01 10:53:37;;;;;;;5.93;3.22;;;21.70;99.90;;;;;;5183081;28;20298;-61
2023/10/01 10:56:14;;;;;;;8.60;3.42;;;22.10;99.90;;;;;;5200335;28;20029;-61
2023/10/01 10:59:01;;;;;;;7.43;3.42;;;21.70;99.90;;;;;;5217583;28;20043;-61
2023/10/01 11:01:47;;;;;;;10.55;3.85;;;21.90;99.90;;;;;;5197111;28;20020;-59
2023/10/01 11:04:41;;;;;;;5.90;3.15;;;23.00;99.90;;;;;;5192004;28;20044;-62
2023/10/01 11:07:19;;;;;;;5.38;2.92;;;23.90;99.90;;;;;;5202842;28;20337;-59
2023/10/01 11:09:54;;;;;;;6.53;2.90;;;25.00;99.90;;;;;;5186511;28;20420;-60
2023/10/01 11:12:31;;;;;;;6.68;3.20;;;24.00;99.90;;;;;;5217598;28;20217;-61
2023/10/01 11:15:23;;;;;;;7.40;3.15;;;22.40;99.90;;;;;;5218992;28;20098;-61
2023/10/01 11:18:01;;;;;;;7.35;3.80;;;21.80;99.90;;;;;;5218749;28;20037;-63
2023/10/01 11:20:45;;;;;;;5.63;3.05;;;22.30;99.90;;;;;;5195002;28;20367;-61
2023/10/01 11:23:19;;;;;;;4.27;2.90;;;23.40;99.90;;;;;;5214818;28;20048;-60
2023/10/01 11:25:53;;;;;;;5.97;2.97;;;24.60;99.90;;;;;;5202007;28;20124;-62
2023/10/01 11:28:41;;;;;;;6.97;3.30;;;25.20;99.90;;;;;;5164202;28;20166;-62
2023/10/01 11:31:38;;;;;;;6.38;2.65;;;25.40;99.90;;;;;;5200995;28;20127;-64
2023/10/01 11:34:26;;;;;;;6.88;3.13;;;25.80;99.90;;;;;;5190830;28;20480;-62
2023/10/01 11:37:11;;;;;;;6.80;3.60;;;25.20;99.90;;;;;;5184740;28;20060;-66
2023/10/01 11:39:58;;;;;;;8.40;2.90;;;24.70;99.90;;;;;;5196356;28;20036;-64
2023/10/01 11:42:52;;;;;;;4.75;2.75;;;25.20;99.90;;;;;;5181191;28;20029;-66
2023/10/01 11:45:32;;;;;;;7.55;3.40;;;24.90;99.90;;;;;;5161537;28;20112;-63
2023/10/01 11:48:19;;;;;;;6.10;3.05;;;24.20;99.90;;;;;;5195951;28;20032;-66
2023/10/01 11:50:54;;;;;;;8.15;3.03;;;24.20;99.90;;;;;;5197460;28;20021;-65
2023/10/01 11:53:34;;;;;;;7.32;2.85;;;24.50;99.90;;;;;;5181335;28;20199;-62
2023/10/01 11:56:11;;;;;;;6.20;3.22;;;24.20;99.90;;;;;;5177775;28;20342;-64
2023/10/01 11:58:47;;;;;;;6.38;3.05;;;24.50;99.90;;;;;;5209948;28;20056;-63
2023/10/01 12:01:18;;;;;;;7.45;2.78;;;26.20;99.90;;;;;;5192478;28;20497;-61
2023/10/01 12:03:58;;;;;;;6.35;2.78;;;26.30;99.90;;;;;;5180448;28;20044;-62
2023/10/01 12:06:34;;;;;;;5.97;3.00;;;26.30;99.90;;;;;;5170303;28;20049;-63
2023/10/01 12:09:10;;;;;;;7.97;3.08;;;25.60;99.90;;;;;;5201701;28;20041;-67
2023/10/01 12:12:02;;;;;;;7.35;2.72;;;25.90;99.90;;;;;;5199855;28;20029;-65
2023/10/01 12:14:52;;;;;;;6.60;2.90;;;26.20;99.90;;;;;;5196434;28;20036;-62
2023/10/01 12:17:29;;;;;;;6.00;2.90;;;27.10;99.90;;;;;;5178116;28;20048;-63
2023/10/01 12:20:21;;;;;;;7.90;2.90;;;26.50;99.90;;;;;;5201519;28;20047;-60
2023/10/01 12:23:14;;;;;;;6.60;3.05;;;26.70;99.90;;;;;;5204699;28;20071;-63
2023/10/01 12:28:29;;;;;;;5.15;2.83;;;26.40;99.90;;;;;;5201540;28;20024;-64
2023/10/01 12:31:09;;;;;;;8.23;3.10;;;26.40;99.90;;;;;;5196840;28;20661;-62
2023/10/01 12:36:42;;;;;;;5.60;2.90;;;26.70;99.90;;;;;;5209592;28;20044;-61
2023/10/01 12:39:17;;;;;;;6.45;3.42;;;26.40;99.90;;;;;;5204193;28;20045;-65
2023/10/01 12:44:28;;;;;;;5.80;2.70;;;26.60;99.90;;;;;;5202028;28;20037;-65
2023/10/01 12:47:07;;;;;;;7.80;3.58;;;26.80;99.90;;;;;;5197903;28;20049;-63
2023/10/01 12:49:58;;;;;;;6.28;2.55;;;26.20;99.90;;;;;;5217123;28;20680;-63
2023/10/01 12:52:30;;;;;;;6.10;2.65;;;25.40;99.90;;;;;;5194259;28;20071;-66
2023/10/01 12:55:04;;;;;;;5.88;2.72;;;25.60;99.90;;;;;;5189134;28;20048;-62
2023/10/01 12:57:46;;;;;;;6.10;2.72;;;26.10;99.90;;;;;;5195663;28;20584;-62
2023/10/01 13:00:43;;;;;;;5.20;2.80;;;26.50;99.90;;;;;;5200258;28;20378;-64
2023/10/01 13:03:22;;;;;;;6.57;2.80;;;26.70;99.90;;;;;;5201730;28;20045;-62
2023/10/01 13:05:55;;;;;;;4.05;2.13;;;26.00;99.90;;;;;;5184605;28;20593;-67
2023/10/01 13:08:29;;;;;;;4.80;2.72;;;27.00;99.90;;;;;;5200794;28;20037;-63
2023/10/01 13:11:02;;;;;;;6.03;3.30;;;28.00;99.90;;;;;;5195188;28;20047;-63
2023/10/01 13:13:35;;;;;;;6.70;3.07;;;27.30;99.90;;;;;;5210390;28;20043;-66
2023/10/01 13:16:16;;;;;;;5.27;3.10;;;26.40;99.90;;;;;;5199406;28;20051;-65
2023/10/01 13:18:54;;;;;;;5.20;2.65;;;27.00;99.90;;;;;;5220736;28;20266;-63
2023/10/01 13:21:41;;;;;;;6.32;3.08;;;28.10;99.90;;;;;;5213812;28;20469;-62
2023/10/01 13:24:13;;;;;;;4.75;2.45;;;28.40;99.90;;;;;;5198107;28;20045;-60
2023/10/01 13:27:05;;;;;;;4.90;2.63;;;27.20;99.90;;;;;;5196019;28;20490;-63
2023/10/01 13:29:49;;;;;;;6.75;2.75;;;27.60;99.90;;;;;;5202251;28;20067;-64
2023/10/01 13:32:32;;;;;;;7.73;3.30;;;26.70;99.90;;;;;;5168866;28;20059;-62
2023/10/01 13:35:31;;;;;;;6.03;2.65;;;26.70;99.90;;;;;;5184798;28;20044;-62
2023/10/01 13:38:15;;;;;;;6.97;3.53;;;26.60;99.90;;;;;;5203558;28;20032;-62
2023/10/01 14:08:43;;;;;;;8.18;3.40;;;26.80;99.90;;;;;;5216470;28;20033;-64
2023/10/01 14:12:41;;;;;;;6.72;3.13;;;26.10;99.90;;;;;;5193077;28;20413;-65
2023/10/01 14:15:22;;;;;;;6.38;3.05;;;25.70;99.90;;;;;;5173879;28;20048;-64
2023/10/01 14:17:58;;;;;;;8.63;3.03;;;25.70;1.00;;;;;;5192809;28;20045;-61
2023/10/01 14:20:38;;;;;;;5.65;2.72;;;26.60;99.90;;;;;;5192712;28;20033;-63
2023/10/01 14:26:20;;;;;;;7.95;3.15;;;27.10;1.00;;;;;;5193000;28;20037;-64
2023/10/01 14:28:55;;;;;;;7.20;3.63;;;26.80;1.00;;;;;;5179205;28;20037;-64
2023/10/01 14:31:48;;;;;;;8.77;3.70;;;26.40;1.00;;;;;;5154978;28;20049;-66
2023/10/01 14:34:22;;;;;;;8.60;3.35;;;26.00;1.00;;;;;;5167203;28;20044;-67
2023/10/01 14:37:00;;;;;;;;;;;26.00;1.00;;;;;;5196969;28;20045;-62
2023/10/01 14:39:34;;;;;;;7.68;3.40;;;26.50;1.00;;;;;;5171081;28;19925;-62
2023/10/01 14:42:06;;;;;;;7.00;3.15;;;26.90;1.00;;;;;;5169004;28;20041;-61
2023/10/01 14:44:44;;;;;;;15.40;3.85;;;26.50;1.00;;;;;;5223824;28;20044;-62
2023/10/01 14:47:18;;;;;;;6.45;2.85;;;26.50;1.00;;;;;;5200038;28;20490;-65
2023/10/01 14:49:51;;;;;;;6.78;3.65;;;25.90;1.00;;;;;;5195428;28;20048;-66
2023/10/01 14:52:23;;;;;;;6.93;2.67;;;25.50;1.00;;;;;;5183018;28;20439;-64
2023/10/01 14:55:01;;;;;;;6.03;3.50;;;25.40;1.00;;;;;;5198697;28;20040;-65
2023/10/01 14:57:35;;;;;;;6.82;3.40;;;25.30;99.90;;;;;;5196881;28;20045;-63
2023/10/01 15:00:16;;;;;;;5.82;3.15;;;25.30;1.00;;;;;;5176752;28;20044;-66
2023/10/01 15:02:48;;;;;;;7.65;3.80;;;25.70;99.90;;;;;;5196755;28;20112;-65
2023/10/01 15:05:26;;;;;;;6.93;3.25;;;25.40;99.90;;;;;;5188430;28;20044;-64
2023/10/01 15:08:00;;;;;;;4.47;2.65;;;25.50;99.90;;;;;;5194533;28;20071;-67
2023/10/01 15:10:34;;;;;;;7.55;2.88;;;25.50;99.90;;;;;;5182484;28;20045;-64
2023/10/01 15:13:11;;;;;;;8.15;3.92;;;25.00;99.90;;;;;;5179148;28;20040;-64
2023/10/01 15:15:46;;;;;;;5.13;2.63;;;24.30;99.90;;;;;;5211023;28;20047;-62
2023/10/01 15:18:17;;;;;;;6.20;3.20;;;23.90;99.90;;;;;;5197676;28;20253;-64
2023/10/01 15:20:54;;;;;;;5.30;3.38;;;23.40;99.90;;;;;;5193113;28;20407;-64
2023/10/01 15:23:27;;;;;;;5.35;3.20;;;23.20;99.90;;;;;;5212318;28;20342;-63
2023/10/01 15:26:11;;;;;;;9.48;3.08;;;23.20;99.90;;;;;;5196435;28;20337;-63